sensor_id;sensor_type;location;lat;lon;timestamp;temperature;humidity
6439;DHT22;3252;52.540;13.290;2023-11-21T08:46:35;22.70;98.70
6439;DHT22;3252;52.540;13.290;2023-11-21T08:48:37;21.60;96.10
6439;DHT22;3252;52.540;13.290;2023-11-21T08:50:39;21.10;96.10
6439;DHT22;3252;52.540;13.290;2023-11-21T08:52:42;20.50;96.20
6439;DHT22;3252;52.540;13.290;2023-11-21T08:54:44;20.10;96.40
6439;DHT22;3252;52.540;13.290;2023-11-21T08:56:50;19.80;97.00
6439;DHT22;3252;52.540;13.290;2023-11-21T08:58:52;19.60;98.20
6439;DHT22;3252;52.540;13.290;2023-11-21T09:00:55;19.30;98.00
6439;DHT22;3252;52.540;13.290;2023-11-21T09:02:58;19.30;98.30
6439;DHT22;3252;52.540;13.290;2023-11-21T09:05:00;19.10;98.10
6439;DHT22;3252;52.540;13.290;2023-11-21T09:07:06;19.00;98.20
6439;DHT22;3252;52.540;13.290;2023-11-21T09:09:08;18.90;98.80
6439;DHT22;3252;52.540;13.290;2023-11-21T09:11:12;18.90;98.20
6439;DHT22;3252;52.540;13.290;2023-11-21T09:13:19;18.90;98.70
6439;DHT22;3252;52.540;13.290;2023-11-21T09:15:22;18.90;98.80
6439;DHT22;3252;52.540;13.290;2023-11-21T09:17:25;18.80;97.90
6439;DHT22;3252;52.540;13.290;2023-11-21T09:19:27;18.80;98.50
6439;DHT22;3252;52.540;13.290;2023-11-21T09:21:29;18.80;98.60
6439;DHT22;3252;52.540;13.290;2023-11-21T09:23:31;18.80;98.40
6439;DHT22;3252;52.540;13.290;2023-11-21T09:25:33;18.80;99.10
6439;DHT22;3252;52.540;13.290;2023-11-21T09:27:35;18.80;98.50
6439;DHT22;3252;52.540;13.290;2023-11-21T09:29:39;18.80;98.30
6439;DHT22;3252;52.540;13.290;2023-11-21T09:31:41;18.80;98.50
6439;DHT22;3252;52.540;13.290;2023-11-21T09:33:44;18.80;98.80
6439;DHT22;3252;52.540;13.290;2023-11-21T09:35:46;18.90;98.30
6439;DHT22;3252;52.540;13.290;2023-11-21T09:37:50;18.80;98.40
6439;DHT22;3252;52.540;13.290;2023-11-21T09:39:53;18.90;98.90
6439;DHT22;3252;52.540;13.290;2023-11-21T09:41:59;18.90;98.80
6439;DHT22;3252;52.540;13.290;2023-11-21T09:44:06;18.90;98.20
6439;DHT22;3252;52.540;13.290;2023-11-21T09:46:13;18.80;97.90
6439;DHT22;3252;52.540;13.290;2023-11-21T09:48:20;18.80;98.30
6439;DHT22;3252;52.540;13.290;2023-11-21T09:50:24;18.70;98.10
6439;DHT22;3252;52.540;13.290;2023-11-21T09:52:28;18.80;98.50
6439;DHT22;3252;52.540;13.290;2023-11-21T09:54:31;18.70;98.40
6439;DHT22;3252;52.540;13.290;2023-11-21T09:56:32;18.80;98.60
6439;DHT22;3252;52.540;13.290;2023-11-21T09:58:34;18.80;98.90
6439;DHT22;3252;52.540;13.290;2023-11-21T10:00:37;18.80;98.20
6439;DHT22;3252;52.540;13.290;2023-11-21T10:02:43;18.80;98.30
6439;DHT22;3252;52.540;13.290;2023-11-21T10:04:46;18.80;98.60
6439;DHT22;3252;52.540;13.290;2023-11-21T10:06:50;18.90;99.90
6439;DHT22;3252;52.540;13.290;2023-11-21T10:08:53;18.90;98.30
6439;DHT22;3252;52.540;13.290;2023-11-21T10:10:57;18.90;98.60
6439;DHT22;3252;52.540;13.290;2023-11-21T10:13:02;18.90;98.00
6439;DHT22;3252;52.540;13.290;2023-11-21T10:15:11;18.90;97.90
6439;DHT22;3252;52.540;13.290;2023-11-21T10:17:18;18.90;97.90
6439;DHT22;3252;52.540;13.290;2023-11-21T10:19:22;18.90;97.80
6439;DHT22;3252;52.540;13.290;2023-11-21T10:21:25;18.90;98.10
6439;DHT22;3252;52.540;13.290;2023-11-21T10:23:29;18.90;97.70
6439;DHT22;3252;52.540;13.290;2023-11-21T10:25:31;18.80;97.50
6439;DHT22;3252;52.540;13.290;2023-11-21T10:27:33;18.80;97.50
6439;DHT22;3252;52.540;13.290;2023-11-21T10:29:35;18.90;97.50
6439;DHT22;3252;52.540;13.290;2023-11-21T10:31:37;18.90;97.00
6439;DHT22;3252;52.540;13.290;2023-11-21T10:33:38;18.80;97.20
6439;DHT22;3252;52.540;13.290;2023-11-21T10:35:46;18.90;97.70
6439;DHT22;3252;52.540;13.290;2023-11-21T10:37:59;18.80;97.20
6439;DHT22;3252;52.540;13.290;2023-11-21T10:40:03;18.80;97.60
6439;DHT22;3252;52.540;13.290;2023-11-21T10:42:08;18.80;97.20
6439;DHT22;3252;52.540;13.290;2023-11-21T10:44:11;18.80;97.30
6439;DHT22;3252;52.540;13.290;2023-11-21T10:46:15;18.90;97.50
6439;DHT22;3252;52.540;13.290;2023-11-21T10:48:17;18.80;97.30
6439;DHT22;3252;52.540;13.290;2023-11-21T10:50:19;18.90;97.20
6439;DHT22;3252;52.540;13.290;2023-11-21T10:52:26;18.80;97.10
6439;DHT22;3252;52.540;13.290;2023-11-21T10:54:29;18.70;97.00
6439;DHT22;3252;52.540;13.290;2023-11-21T10:56:31;18.80;97.30
6439;DHT22;3252;52.540;13.290;2023-11-21T10:58:37;18.70;96.90
6439;DHT22;3252;52.540;13.290;2023-11-21T11:00:41;18.70;97.00
6439;DHT22;3252;52.540;13.290;2023-11-21T11:02:44;18.70;97.50
6439;DHT22;3252;52.540;13.290;2023-11-21T11:04:49;18.70;97.00
6439;DHT22;3252;52.540;13.290;2023-11-21T11:06:54;18.70;97.80
6439;DHT22;3252;52.540;13.290;2023-11-21T11:09:00;18.70;97.50
6439;DHT22;3252;52.540;13.290;2023-11-21T11:11:05;18.70;97.80
6439;DHT22;3252;52.540;13.290;2023-11-21T11:13:07;18.80;98.30
6439;DHT22;3252;52.540;13.290;2023-11-21T11:15:10;18.80;97.70
6439;DHT22;3252;52.540;13.290;2023-11-21T11:17:13;18.70;97.50
6439;DHT22;3252;52.540;13.290;2023-11-21T11:19:15;18.70;97.40
6439;DHT22;3252;52.540;13.290;2023-11-21T11:21:27;18.90;98.20
6439;DHT22;3252;52.540;13.290;2023-11-21T11:23:43;18.90;97.90
6439;DHT22;3252;52.540;13.290;2023-11-21T11:25:58;19.00;97.90
6439;DHT22;3252;52.540;13.290;2023-11-21T11:28:08;19.00;97.80
6439;DHT22;3252;52.540;13.290;2023-11-21T11:30:20;19.00;97.80
6439;DHT22;3252;52.540;13.290;2023-11-21T11:32:33;19.00;97.70
6439;DHT22;3252;52.540;13.290;2023-11-21T11:34:43;19.00;97.00
6439;DHT22;3252;52.540;13.290;2023-11-21T11:36:49;19.00;97.20
6439;DHT22;3252;52.540;13.290;2023-11-21T11:38:54;19.00;97.50
6439;DHT22;3252;52.540;13.290;2023-11-21T11:41:02;19.00;97.40
6439;DHT22;3252;52.540;13.290;2023-11-21T11:43:06;18.90;97.50
6439;DHT22;3252;52.540;13.290;2023-11-21T11:45:18;18.80;97.30
6439;DHT22;3252;52.540;13.290;2023-11-21T11:47:26;18.80;97.30
6439;DHT22;3252;52.540;13.290;2023-11-21T11:49:29;18.80;97.50
6439;DHT22;3252;52.540;13.290;2023-11-21T11:51:32;18.80;97.60
6439;DHT22;3252;52.540;13.290;2023-11-21T11:53:37;18.80;97.40
6439;DHT22;3252;52.540;13.290;2023-11-21T11:55:40;18.80;97.30
6439;DHT22;3252;52.540;13.290;2023-11-21T11:57:45;18.70;96.80
6439;DHT22;3252;52.540;13.290;2023-11-21T12:00:09;18.70;97.40
6439;DHT22;3252;52.540;13.290;2023-11-21T12:02:11;18.70;97.40
6439;DHT22;3252;52.540;13.290;2023-11-21T12:04:26;18.80;97.40
6439;DHT22;3252;52.540;13.290;2023-11-21T12:06:35;18.80;97.10
6439;DHT22;3252;52.540;13.290;2023-11-21T12:08:37;18.70;96.90
6439;DHT22;3252;52.540;13.290;2023-11-21T12:10:39;18.70;97.00
6439;DHT22;3252;52.540;13.290;2023-11-21T12:12:45;18.70;96.50
6439;DHT22;3252;52.540;13.290;2023-11-21T12:14:47;18.70;96.80
6439;DHT22;3252;52.540;13.290;2023-11-21T12:16:49;18.70;97.10
6439;DHT22;3252;52.540;13.290;2023-11-21T12:18:50;18.80;96.80
6439;DHT22;3252;52.540;13.290;2023-11-21T12:20:53;18.70;96.80
6439;DHT22;3252;52.540;13.290;2023-11-21T12:22:56;18.80;96.70
6439;DHT22;3252;52.540;13.290;2023-11-21T12:25:00;18.70;96.50
6439;DHT22;3252;52.540;13.290;2023-11-21T12:27:02;18.70;96.60
6439;DHT22;3252;52.540;13.290;2023-11-21T12:29:06;18.70;95.90
6439;DHT22;3252;52.540;13.290;2023-11-21T12:31:08;18.70;96.80
6439;DHT22;3252;52.540;13.290;2023-11-21T12:33:11;18.70;96.70
6439;DHT22;3252;52.540;13.290;2023-11-21T12:35:19;18.70;96.40
6439;DHT22;3252;52.540;13.290;2023-11-21T12:37:22;18.70;96.10
6439;DHT22;3252;52.540;13.290;2023-11-21T12:39:24;18.70;96.40
6439;DHT22;3252;52.540;13.290;2023-11-21T12:41:26;18.70;96.10
6439;DHT22;3252;52.540;13.290;2023-11-21T12:43:29;18.70;96.70
6439;DHT22;3252;52.540;13.290;2023-11-21T12:45:33;18.70;96.30
6439;DHT22;3252;52.540;13.290;2023-11-21T12:47:35;18.70;96.00
6439;DHT22;3252;52.540;13.290;2023-11-21T12:49:37;18.60;98.00
6439;DHT22;3252;52.540;13.290;2023-11-21T12:51:40;18.60;96.50
6439;DHT22;3252;52.540;13.290;2023-11-21T12:53:43;18.60;96.60
6439;DHT22;3252;52.540;13.290;2023-11-21T12:55:45;18.60;96.80
6439;DHT22;3252;52.540;13.290;2023-11-21T12:57:53;18.60;96.60
6439;DHT22;3252;52.540;13.290;2023-11-21T12:59:57;18.60;96.30
6439;DHT22;3252;52.540;13.290;2023-11-21T13:01:59;18.60;96.10
6439;DHT22;3252;52.540;13.290;2023-11-21T13:04:08;18.50;96.30
6439;DHT22;3252;52.540;13.290;2023-11-21T13:06:11;18.50;96.30
6439;DHT22;3252;52.540;13.290;2023-11-21T13:08:14;18.50;96.40
6439;DHT22;3252;52.540;13.290;2023-11-21T13:10:22;18.50;96.10
6439;DHT22;3252;52.540;13.290;2023-11-21T13:12:29;18.40;95.60
6439;DHT22;3252;52.540;13.290;2023-11-21T13:14:34;18.40;96.30
6439;DHT22;3252;52.540;13.290;2023-11-21T13:16:36;18.40;96.00
6439;DHT22;3252;52.540;13.290;2023-11-21T13:18:41;18.40;96.00
6439;DHT22;3252;52.540;13.290;2023-11-21T13:20:44;18.50;96.90
6439;DHT22;3252;52.540;13.290;2023-11-21T13:22:48;18.50;97.10
6439;DHT22;3252;52.540;13.290;2023-11-21T13:24:52;18.50;97.20
6439;DHT22;3252;52.540;13.290;2023-11-21T13:31:00;18.50;97.00
6439;DHT22;3252;52.540;13.290;2023-11-21T13:33:05;18.50;97.10
6439;DHT22;3252;52.540;13.290;2023-11-21T13:35:19;18.50;97.80
6439;DHT22;3252;52.540;13.290;2023-11-21T13:37:24;18.50;97.60
6439;DHT22;3252;52.540;13.290;2023-11-21T13:39:28;18.40;97.70
6439;DHT22;3252;52.540;13.290;2023-11-21T13:41:33;18.50;98.80
6439;DHT22;3252;52.540;13.290;2023-11-21T13:43:35;18.60;98.70
6439;DHT22;3252;52.540;13.290;2023-11-21T13:45:38;18.60;97.70
6439;DHT22;3252;52.540;13.290;2023-11-21T13:47:41;18.60;97.60
6439;DHT22;3252;52.540;13.290;2023-11-21T13:49:43;17.10;86.40
6439;DHT22;3252;52.540;13.290;2023-11-21T13:51:48;16.00;95.30
6439;DHT22;3252;52.540;13.290;2023-11-21T13:53:54;16.10;99.90
6439;DHT22;3252;52.540;13.290;2023-11-21T13:55:56;16.40;99.90
6439;DHT22;3252;52.540;13.290;2023-11-21T13:57:58;16.70;99.90
6439;DHT22;3252;52.540;13.290;2023-11-21T14:00:00;17.10;99.90
6439;DHT22;3252;52.540;13.290;2023-11-21T14:04:18;17.50;99.90
6439;DHT22;3252;52.540;13.290;2023-11-21T15:24:29;18.10;99.90
6439;DHT22;3252;52.540;13.290;2023-11-21T15:26:32;18.20;93.70
6439;DHT22;3252;52.540;13.290;2023-11-21T15:28:34;18.10;93.00
6439;DHT22;3252;52.540;13.290;2023-11-21T15:30:37;18.10;93.50
6439;DHT22;3252;52.540;13.290;2023-11-21T15:32:39;18.10;92.50
6439;DHT22;3252;52.540;13.290;2023-11-21T15:34:42;18.20;92.90
6439;DHT22;3252;52.540;13.290;2023-11-21T15:36:44;18.20;93.80
6439;DHT22;3252;52.540;13.290;2023-11-21T15:38:46;18.20;92.70
6439;DHT22;3252;52.540;13.290;2023-11-21T15:40:48;18.20;93.50
6439;DHT22;3252;52.540;13.290;2023-11-21T15:42:51;18.20;93.60
6439;DHT22;3252;52.540;13.290;2023-11-21T15:44:53;18.20;94.10
6439;DHT22;3252;52.540;13.290;2023-11-21T15:46:56;18.10;92.80
6439;DHT22;3252;52.540;13.290;2023-11-21T15:48:58;18.20;94.00
6439;DHT22;3252;52.540;13.290;2023-11-21T15:51:02;18.10;92.90
6439;DHT22;3252;52.540;13.290;2023-11-21T15:53:05;18.10;91.90
6439;DHT22;3252;52.540;13.290;2023-11-21T15:55:08;18.10;93.70
6439;DHT22;3252;52.540;13.290;2023-11-21T15:57:10;18.00;93.80
6439;DHT22;3252;52.540;13.290;2023-11-21T15:59:12;18.00;92.80
6439;DHT22;3252;52.540;13.290;2023-11-21T16:01:14;18.00;94.90
6439;DHT22;3252;52.540;13.290;2023-11-21T16:03:17;18.00;94.80
6439;DHT22;3252;52.540;13.290;2023-11-21T16:05:19;18.10;93.60
6439;DHT22;3252;52.540;13.290;2023-11-21T16:07:21;18.00;93.40
6439;DHT22;3252;52.540;13.290;2023-11-21T16:09:22;18.00;93.30
6439;DHT22;3252;52.540;13.290;2023-11-21T16:11:31;18.00;93.20
6439;DHT22;3252;52.540;13.290;2023-11-21T16:13:34;18.00;94.20
6439;DHT22;3252;52.540;13.290;2023-11-21T16:15:35;18.10;94.10
6439;DHT22;3252;52.540;13.290;2023-11-21T16:17:38;18.10;94.90
6439;DHT22;3252;52.540;13.290;2023-11-21T16:19:42;18.20;94.10
6439;DHT22;3252;52.540;13.290;2023-11-21T16:21:45;18.20;95.50
6439;DHT22;3252;52.540;13.290;2023-11-21T16:23:46;18.20;94.70
6439;DHT22;3252;52.540;13.290;2023-11-21T16:25:48;18.10;93.30
6439;DHT22;3252;52.540;13.290;2023-11-21T16:27:55;18.10;93.50
6439;DHT22;3252;52.540;13.290;2023-11-21T16:30:00;18.10;94.20
6439;DHT22;3252;52.540;13.290;2023-11-21T16:32:05;18.10;93.80
6439;DHT22;3252;52.540;13.290;2023-11-21T16:34:12;18.10;93.50
6439;DHT22;3252;52.540;13.290;2023-11-21T16:36:16;18.10;94.10
6439;DHT22;3252;52.540;13.290;2023-11-21T16:38:18;18.00;93.90
6439;DHT22;3252;52.540;13.290;2023-11-21T16:40:21;18.00;93.80
6439;DHT22;3252;52.540;13.290;2023-11-21T16:42:22;18.00;92.30
6439;DHT22;3252;52.540;13.290;2023-11-21T16:44:24;18.10;92.60
6439;DHT22;3252;52.540;13.290;2023-11-21T16:46:26;18.10;94.00
6439;DHT22;3252;52.540;13.290;2023-11-21T16:48:28;18.00;92.10
6439;DHT22;3252;52.540;13.290;2023-11-21T16:50:30;18.10;92.80
6439;DHT22;3252;52.540;13.290;2023-11-21T16:52:34;18.10;92.40
6439;DHT22;3252;52.540;13.290;2023-11-21T16:54:37;18.10;93.10
6439;DHT22;3252;52.540;13.290;2023-11-21T16:56:39;18.10;93.80
6439;DHT22;3252;52.540;13.290;2023-11-21T16:58:41;18.10;93.40
6439;DHT22;3252;52.540;13.290;2023-11-21T17:00:44;18.20;94.00
6439;DHT22;3252;52.540;13.290;2023-11-21T17:02:46;18.10;93.80
6439;DHT22;3252;52.540;13.290;2023-11-21T17:04:49;18.10;93.60
6439;DHT22;3252;52.540;13.290;2023-11-21T17:06:51;18.00;92.00
6439;DHT22;3252;52.540;13.290;2023-11-21T17:08:55;17.90;92.60
6439;DHT22;3252;52.540;13.290;2023-11-21T17:10:57;17.80;93.30
6439;DHT22;3252;52.540;13.290;2023-11-21T17:12:59;17.80;93.50
6439;DHT22;3252;52.540;13.290;2023-11-21T17:15:02;17.80;93.20
6439;DHT22;3252;52.540;13.290;2023-11-21T17:17:04;17.70;92.90
6439;DHT22;3252;52.540;13.290;2023-11-21T17:19:09;17.70;92.80
6439;DHT22;3252;52.540;13.290;2023-11-21T17:21:11;17.70;93.00
6439;DHT22;3252;52.540;13.290;2023-11-21T17:23:13;17.70;91.80
6439;DHT22;3252;52.540;13.290;2023-11-21T17:25:17;17.60;91.10
6439;DHT22;3252;52.540;13.290;2023-11-21T17:27:19;17.60;91.90
6439;DHT22;3252;52.540;13.290;2023-11-21T17:29:22;17.60;91.70
6439;DHT22;3252;52.540;13.290;2023-11-21T17:31:25;17.60;92.50
6439;DHT22;3252;52.540;13.290;2023-11-21T17:33:27;17.50;91.30
6439;DHT22;3252;52.540;13.290;2023-11-21T17:35:29;17.60;93.30
6439;DHT22;3252;52.540;13.290;2023-11-21T17:37:30;17.60;93.10
6439;DHT22;3252;52.540;13.290;2023-11-21T17:39:33;17.60;93.20
6439;DHT22;3252;52.540;13.290;2023-11-21T17:41:36;17.60;93.30
6439;DHT22;3252;52.540;13.290;2023-11-21T17:43:38;17.50;92.30
6439;DHT22;3252;52.540;13.290;2023-11-21T17:45:42;17.50;93.30
6439;DHT22;3252;52.540;13.290;2023-11-21T17:47:45;17.50;92.90
6439;DHT22;3252;52.540;13.290;2023-11-21T17:49:47;17.50;93.70
6439;DHT22;3252;52.540;13.290;2023-11-21T17:51:50;17.50;93.30
6439;DHT22;3252;52.540;13.290;2023-11-21T17:53:52;17.50;93.30
6439;DHT22;3252;52.540;13.290;2023-11-21T17:56:02;17.50;93.10
6439;DHT22;3252;52.540;13.290;2023-11-21T17:58:06;17.50;92.80
6439;DHT22;3252;52.540;13.290;2023-11-21T18:00:08;17.50;93.80
6439;DHT22;3252;52.540;13.290;2023-11-21T18:02:12;17.50;92.70
6439;DHT22;3252;52.540;13.290;2023-11-21T18:04:14;17.40;93.10
6439;DHT22;3252;52.540;13.290;2023-11-21T18:06:17;17.30;93.00
6439;DHT22;3252;52.540;13.290;2023-11-21T18:08:19;17.40;91.60
6439;DHT22;3252;52.540;13.290;2023-11-21T18:10:21;17.40;91.30
6439;DHT22;3252;52.540;13.290;2023-11-21T18:12:24;17.40;91.80
6439;DHT22;3252;52.540;13.290;2023-11-21T18:14:27;17.40;91.80
6439;DHT22;3252;52.540;13.290;2023-11-21T18:16:28;17.40;92.30
6439;DHT22;3252;52.540;13.290;2023-11-21T18:18:30;17.30;90.90
6439;DHT22;3252;52.540;13.290;2023-11-21T18:20:33;17.30;92.00
6439;DHT22;3252;52.540;13.290;2023-11-21T18:22:35;17.30;92.10
6439;DHT22;3252;52.540;13.290;2023-11-21T18:24:36;17.30;91.80
6439;DHT22;3252;52.540;13.290;2023-11-21T18:26:40;17.30;92.10
6439;DHT22;3252;52.540;13.290;2023-11-21T18:28:42;17.30;93.50
6439;DHT22;3252;52.540;13.290;2023-11-21T18:30:45;17.40;92.80
6439;DHT22;3252;52.540;13.290;2023-11-21T18:32:46;17.40;92.90
6439;DHT22;3252;52.540;13.290;2023-11-21T18:34:48;17.40;93.60
6439;DHT22;3252;52.540;13.290;2023-11-21T18:36:51;17.50;92.90
6439;DHT22;3252;52.540;13.290;2023-11-21T18:38:53;17.50;93.40
6439;DHT22;3252;52.540;13.290;2023-11-21T18:40:55;17.50;93.90
6439;DHT22;3252;52.540;13.290;2023-11-21T18:42:58;17.50;93.10
6439;DHT22;3252;52.540;13.290;2023-11-21T18:45:00;17.60;93.50
6439;DHT22;3252;52.540;13.290;2023-11-21T18:47:07;17.60;93.20
6439;DHT22;3252;52.540;13.290;2023-11-21T18:49:12;17.60;93.50
6439;DHT22;3252;52.540;13.290;2023-11-21T18:51:14;17.60;93.60
6439;DHT22;3252;52.540;13.290;2023-11-21T18:53:17;17.70;93.90
6439;DHT22;3252;52.540;13.290;2023-11-21T18:55:19;17.70;93.60
6439;DHT22;3252;52.540;13.290;2023-11-21T18:57:22;17.70;93.10
6439;DHT22;3252;52.540;13.290;2023-11-21T18:59:24;17.60;92.40
6439;DHT22;3252;52.540;13.290;2023-11-21T21:14:46;17.70;92.90
6439;DHT22;3252;52.540;13.290;2023-11-21T21:16:48;17.80;91.70
6439;DHT22;3252;52.540;13.290;2023-11-21T21:18:50;17.70;92.50
6439;DHT22;3252;52.540;13.290;2023-11-21T21:20:51;17.80;92.30
6439;DHT22;3252;52.540;13.290;2023-11-21T21:22:54;17.70;92.80
6439;DHT22;3252;52.540;13.290;2023-11-21T21:24:57;17.80;92.20
6439;DHT22;3252;52.540;13.290;2023-11-21T21:26:59;17.70;92.10
6439;DHT22;3252;52.540;13.290;2023-11-21T21:29:02;17.70;92.40
6439;DHT22;3252;52.540;13.290;2023-11-21T21:31:07;17.70;93.00
6439;DHT22;3252;52.540;13.290;2023-11-21T21:33:09;17.70;93.30
6439;DHT22;3252;52.540;13.290;2023-11-21T21:35:12;17.80;92.80
6439;DHT22;3252;52.540;13.290;2023-11-21T21:37:14;17.80;92.80
6439;DHT22;3252;52.540;13.290;2023-11-21T21:39:16;17.80;92.60
6439;DHT22;3252;52.540;13.290;2023-11-21T21:41:20;17.80;93.00
6439;DHT22;3252;52.540;13.290;2023-11-21T21:43:24;17.70;92.40
6439;DHT22;3252;52.540;13.290;2023-11-21T21:45:27;17.80;92.80
6439;DHT22;3252;52.540;13.290;2023-11-21T21:47:31;17.80;92.80
6439;DHT22;3252;52.540;13.290;2023-11-21T21:49:33;17.80;92.90
6439;DHT22;3252;52.540;13.290;2023-11-21T21:51:35;17.80;92.50
6439;DHT22;3252;52.540;13.290;2023-11-21T21:53:38;17.80;93.10
6439;DHT22;3252;52.540;13.290;2023-11-21T21:55:40;17.90;93.10
6439;DHT22;3252;52.540;13.290;2023-11-21T21:57:42;17.90;92.80
6439;DHT22;3252;52.540;13.290;2023-11-21T21:59:44;17.90;92.80
6439;DHT22;3252;52.540;13.290;2023-11-21T22:01:49;17.90;92.80
6439;DHT22;3252;52.540;13.290;2023-11-21T22:03:55;17.90;92.60
6439;DHT22;3252;52.540;13.290;2023-11-21T22:05:59;17.90;92.60
6439;DHT22;3252;52.540;13.290;2023-11-21T22:08:03;17.90;92.30
6439;DHT22;3252;52.540;13.290;2023-11-21T22:10:06;17.80;92.10
6439;DHT22;3252;52.540;13.290;2023-11-21T22:12:08;17.80;92.80
6439;DHT22;3252;52.540;13.290;2023-11-21T22:14:13;17.80;92.20
6439;DHT22;3252;52.540;13.290;2023-11-21T22:16:16;17.80;92.00
6439;DHT22;3252;52.540;13.290;2023-11-21T22:18:18;17.80;92.50
6439;DHT22;3252;52.540;13.290;2023-11-21T22:20:21;17.80;92.70
6439;DHT22;3252;52.540;13.290;2023-11-21T22:22:24;17.80;92.60
6439;DHT22;3252;52.540;13.290;2023-11-21T22:24:27;17.70;92.40
6439;DHT22;3252;52.540;13.290;2023-11-21T22:26:34;17.70;92.30
6439;DHT22;3252;52.540;13.290;2023-11-21T22:28:36;17.70;92.50
6439;DHT22;3252;52.540;13.290;2023-11-21T22:30:39;17.60;92.20
6439;DHT22;3252;52.540;13.290;2023-11-21T22:32:41;17.60;92.50
6439;DHT22;3252;52.540;13.290;2023-11-21T22:34:43;17.60;92.50
6439;DHT22;3252;52.540;13.290;2023-11-21T22:36:47;17.60;92.60
6439;DHT22;3252;52.540;13.290;2023-11-21T22:38:49;17.60;92.10
6439;DHT22;3252;52.540;13.290;2023-11-21T22:40:52;17.60;92.40
6439;DHT22;3252;52.540;13.290;2023-11-21T22:42:53;17.60;92.50
6439;DHT22;3252;52.540;13.290;2023-11-21T22:44:55;17.60;92.20
6439;DHT22;3252;52.540;13.290;2023-11-21T22:46:56;17.70;92.40
6439;DHT22;3252;52.540;13.290;2023-11-21T22:49:00;17.70;92.20
6439;DHT22;3252;52.540;13.290;2023-11-21T22:51:04;17.70;91.90
6439;DHT22;3252;52.540;13.290;2023-11-21T22:53:07;17.70;92.20
6439;DHT22;3252;52.540;13.290;2023-11-21T22:55:10;17.70;92.20
6439;DHT22;3252;52.540;13.290;2023-11-21T22:57:12;17.70;91.70
6439;DHT22;3252;52.540;13.290;2023-11-21T22:59:14;17.70;91.70
6439;DHT22;3252;52.540;13.290;2023-11-21T23:01:17;17.70;91.60
6439;DHT22;3252;52.540;13.290;2023-11-21T23:03:20;17.70;91.90
6439;DHT22;3252;52.540;13.290;2023-11-21T23:13:33;17.70;93.30
